Time;durP1;ratioP1;P1;durP2;ratioP2;P2;SDS_P1;SDS_P2;PMS_P1;PMS_P2;Temp;Humidity;BMP_temperature;BMP_pressure;BME280_temperature;BME280_humidity;BME280_pressure;Samples;Min_cycle;Max_cycle;Signal;HPM_P1;HPM_P2
2023/06/03 00:02:04;;;;;;;12.00;4.70;;;12.30;99.90;;;;;;5072113;28;20032;-75
2023/06/03 00:04:30;;;;;;;13.68;4.88;;;12.30;99.90;;;;;;5072626;28;20039;-75
2023/06/03 00:06:59;;;;;;;14.02;4.60;;;12.30;99.90;;;;;;5067356;28;20021;-76
2023/06/03 00:09:25;;;;;;;13.05;4.78;;;12.30;99.90;;;;;;5068592;28;20028;-76
2023/06/03 00:11:51;;;;;;;11.52;4.55;;;12.30;99.90;;;;;;5072691;28;20089;-75
2023/06/03 00:14:18;;;;;;;9.45;4.93;;;12.30;99.90;;;;;;5072200;28;20021;-75
2023/06/03 00:16:45;;;;;;;16.20;4.70;;;12.30;99.90;;;;;;5069899;28;20103;-76
2023/06/03 00:19:14;;;;;;;10.07;4.47;;;12.30;99.90;;;;;;5071351;28;20039;-76
2023/06/03 00:21:49;;;;;;;13.63;4.32;;;12.30;99.90;;;;;;5073508;28;20037;-75
2023/06/03 00:24:16;;;;;;;9.10;3.70;;;12.30;99.90;;;;;;5071257;28;20111;-76
2023/06/03 00:26:42;;;;;;;7.45;4.38;;;12.20;99.90;;;;;;5052939;28;20111;-76
2023/06/03 00:29:09;;;;;;;10.43;4.88;;;12.20;99.90;;;;;;5069404;28;20543;-76
2023/06/03 00:31:34;;;;;;;9.43;4.32;;;12.20;99.90;;;;;;5066993;28;20439;-76
2023/06/03 00:34:00;;;;;;;13.02;4.78;;;12.20;99.90;;;;;;5068037;28;20074;-76
2023/06/03 00:36:26;;;;;;;9.05;3.95;;;12.20;99.90;;;;;;5071993;28;20469;-76
2023/06/03 00:38:52;;;;;;;14.48;4.30;;;12.20;99.90;;;;;;5069464;28;20048;-76
2023/06/03 00:41:19;;;;;;;13.30;5.00;;;12.10;99.90;;;;;;5052451;28;20036;-76
2023/06/03 00:43:44;;;;;;;10.68;4.47;;;12.10;99.90;;;;;;5072019;28;20525;-75
2023/06/03 00:46:11;;;;;;;11.52;4.20;;;12.10;99.90;;;;;;5071457;28;20032;-75
2023/06/03 00:48:38;;;;;;;10.77;3.85;;;12.10;99.90;;;;;;5071136;28;20275;-75
2023/06/03 00:51:04;;;;;;;12.18;4.22;;;12.10;99.90;;;;;;5072054;28;20079;-76
2023/06/03 00:53:29;;;;;;;8.55;4.57;;;12.00;99.90;;;;;;5070865;28;20024;-76
2023/06/03 00:55:55;;;;;;;6.97;3.92;;;12.00;99.90;;;;;;5038625;28;20086;-75
2023/06/03 00:58:21;;;;;;;10.70;4.07;;;12.00;99.90;;;;;;5070155;28;20079;-75
2023/06/03 01:00:47;;;;;;;9.57;4.90;;;12.00;99.90;;;;;;5072106;28;20087;-75
2023/06/03 01:03:14;;;;;;;11.95;4.20;;;11.90;99.90;;;;;;5069412;28;20040;-76
2023/06/03 01:05:41;;;;;;;8.27;3.95;;;11.90;99.90;;;;;;5067657;28;20044;-76
2023/06/03 01:08:22;;;;;;;15.07;4.18;;;11.90;99.90;;;;;;5071062;28;20020;-76
2023/06/03 01:11:11;;;;;;;9.30;3.60;;;11.90;99.90;;;;;;5061865;28;20170;-76
2023/06/03 01:13:53;;;;;;;11.93;4.70;;;11.80;99.90;;;;;;5071297;28;20504;-76
2023/06/03 01:16:23;;;;;;;8.05;3.50;;;11.80;99.90;;;;;;5069932;28;20507;-76
2023/06/03 01:18:51;;;;;;;9.65;4.30;;;11.70;99.90;;;;;;5066762;28;20058;-76
2023/06/03 01:21:17;;;;;;;10.80;4.55;;;11.70;99.90;;;;;;5071601;28;20040;-76
2023/06/03 01:23:44;;;;;;;8.07;4.25;;;11.70;99.90;;;;;;5069362;28;20028;-76
2023/06/03 01:26:11;;;;;;;9.73;4.55;;;11.70;99.90;;;;;;5070426;28;20114;-76
2023/06/03 01:28:38;;;;;;;9.68;4.20;;;11.60;99.90;;;;;;5068104;28;20028;-76
2023/06/03 01:31:05;;;;;;;9.00;4.45;;;11.60;99.90;;;;;;5071291;28;20024;-76
2023/06/03 01:33:32;;;;;;;8.02;4.65;;;11.50;99.90;;;;;;5070024;28;20109;-76
2023/06/03 01:36:04;;;;;;;9.55;4.50;;;11.50;99.90;;;;;;5070333;28;20029;-76
2023/06/03 01:38:30;;;;;;;12.10;4.32;;;11.50;99.90;;;;;;5068906;28;20111;-76
2023/06/03 01:40:56;;;;;;;9.43;4.70;;;11.50;99.90;;;;;;5071317;28;20063;-76
2023/06/03 01:43:22;;;;;;;10.73;4.43;;;11.50;99.90;;;;;;5069680;28;20024;-76
2023/06/03 01:45:47;;;;;;;13.13;4.43;;;11.50;99.90;;;;;;5070303;28;20032;-76
2023/06/03 01:48:13;;;;;;;11.57;4.57;;;11.50;99.90;;;;;;5070190;28;20032;-76
2023/06/03 01:50:43;;;;;;;9.70;4.57;;;11.50;99.90;;;;;;5066438;28;20047;-76
2023/06/03 01:53:09;;;;;;;10.40;4.55;;;11.50;99.90;;;;;;5068005;28;20047;-76
2023/06/03 01:55:34;;;;;;;9.18;4.97;;;11.50;99.90;;;;;;5069663;28;20024;-76
2023/06/03 01:58:00;;;;;;;9.43;3.83;;;11.50;99.90;;;;;;5066393;28;20024;-76
2023/06/03 02:00:26;;;;;;;9.20;4.30;;;11.50;99.90;;;;;;5069767;28;20413;-76
2023/06/03 02:02:52;;;;;;;9.88;4.00;;;11.40;99.90;;;;;;5069123;28;20127;-76
2023/06/03 02:05:18;;;;;;;9.55;4.28;;;11.40;99.90;;;;;;5069218;28;20100;-76
2023/06/03 02:07:43;;;;;;;11.10;4.57;;;11.50;99.90;;;;;;5069854;28;20028;-76
2023/06/03 02:10:09;;;;;;;13.82;4.93;;;11.40;99.90;;;;;;5068765;28;20021;-76
2023/06/03 02:12:34;;;;;;;10.70;4.97;;;11.40;99.90;;;;;;5069326;28;20029;-76
2023/06/03 02:15:00;;;;;;;8.75;4.68;;;11.40;99.90;;;;;;5069267;28;20105;-76
2023/06/03 02:17:26;;;;;;;8.93;4.10;;;11.40;99.90;;;;;;5069540;28;20384;-76
2023/06/03 02:19:53;;;;;;;13.73;4.32;;;11.40;99.90;;;;;;5070882;28;20112;-76
2023/06/03 02:22:19;;;;;;;7.45;3.63;;;11.30;99.90;;;;;;5069258;28;20083;-76
2023/06/03 02:24:47;;;;;;;6.38;4.00;;;11.30;99.90;;;;;;5069730;28;20052;-76
2023/06/03 02:27:19;;;;;;;11.30;3.97;;;11.30;99.90;;;;;;5067567;28;20448;-76
2023/06/03 02:29:50;;;;;;;14.93;4.47;;;11.30;99.90;;;;;;5070291;28;20107;-76
2023/06/03 02:32:16;;;;;;;7.90;4.22;;;11.30;99.90;;;;;;5068486;28;20313;-76
2023/06/03 02:34:43;;;;;;;6.97;4.10;;;11.30;99.90;;;;;;5070315;28;20029;-76
2023/06/03 02:37:10;;;;;;;11.73;3.80;;;11.30;99.90;;;;;;5069520;28;20036;-76
2023/06/03 02:39:36;;;;;;;9.10;4.05;;;11.20;99.90;;;;;;5069674;28;20123;-76
2023/06/03 02:42:02;;;;;;;13.88;4.45;;;11.20;99.90;;;;;;5066101;28;20115;-76
2023/06/03 02:44:28;;;;;;;7.32;3.70;;;11.20;99.90;;;;;;5070034;28;20029;-76
2023/06/03 02:46:53;;;;;;;9.05;3.70;;;11.20;99.90;;;;;;5069111;28;20025;-76
2023/06/03 02:49:19;;;;;;;7.32;3.92;;;11.20;99.90;;;;;;5069636;28;20115;-76
2023/06/03 02:51:44;;;;;;;9.65;3.97;;;11.20;99.90;;;;;;5051677;28;20035;-76
2023/06/03 02:54:10;;;;;;;11.18;3.78;;;11.10;99.90;;;;;;5069603;28;20063;-76
2023/06/03 02:56:36;;;;;;;8.88;3.40;;;11.10;99.90;;;;;;5069400;28;20437;-76
2023/06/03 02:59:01;;;;;;;6.32;2.92;;;11.10;99.90;;;;;;5068049;28;20032;-76
2023/06/03 03:01:28;;;;;;;7.68;3.30;;;11.10;99.90;;;;;;5069245;28;20036;-76
2023/06/03 03:03:53;;;;;;;5.93;2.70;;;11.00;99.90;;;;;;5054648;28;20067;-76
2023/06/03 03:06:23;;;;;;;9.30;2.90;;;11.10;99.90;;;;;;5072737;28;20078;-76
2023/06/03 03:08:53;;;;;;;11.18;3.13;;;11.00;99.90;;;;;;5073517;28;20021;-76
2023/06/03 03:11:18;;;;;;;7.38;3.58;;;11.00;99.90;;;;;;5055555;28;20452;-76
2023/06/03 03:13:45;;;;;;;7.22;3.42;;;11.00;99.90;;;;;;5073615;28;20096;-76
2023/06/03 03:16:12;;;;;;;5.15;2.63;;;11.00;99.90;;;;;;5072035;28;20043;-76
2023/06/03 03:18:38;;;;;;;7.05;2.53;;;11.00;99.90;;;;;;5072375;28;20077;-76
2023/06/03 03:21:05;;;;;;;7.60;3.13;;;11.00;99.90;;;;;;5073971;28;20044;-76
2023/06/03 03:23:31;;;;;;;9.63;2.72;;;11.00;99.90;;;;;;5072782;28;20040;-76
2023/06/03 03:25:58;;;;;;;4.97;2.60;;;11.00;99.90;;;;;;5071411;28;20028;-76
2023/06/03 03:28:24;;;;;;;5.32;2.60;;;11.00;99.90;;;;;;5072213;28;20388;-76
2023/06/03 03:30:50;;;;;;;5.32;2.65;;;11.00;99.90;;;;;;5073560;28;20029;-76
2023/06/03 03:33:19;;;;;;;5.72;2.15;;;11.00;99.90;;;;;;5072516;28;20107;-76
2023/06/03 03:35:44;;;;;;;6.15;2.35;;;11.00;99.90;;;;;;5073191;28;20029;-76
2023/06/03 03:38:10;;;;;;;5.93;2.67;;;11.00;99.90;;;;;;5072684;28;20063;-76
2023/06/03 03:40:37;;;;;;;7.90;2.58;;;11.00;99.90;;;;;;5073536;28;20059;-76
2023/06/03 03:43:03;;;;;;;4.80;2.10;;;11.00;99.90;;;;;;5073045;28;20028;-76
2023/06/03 03:45:31;;;;;;;5.85;2.42;;;11.00;99.90;;;;;;5072150;28;20529;-76
2023/06/03 03:48:04;;;;;;;5.45;2.30;;;10.90;99.90;;;;;;5072904;28;20016;-75
2023/06/03 03:50:44;;;;;;;6.18;1.98;;;11.00;99.90;;;;;;5066893;28;20032;-76
2023/06/03 03:53:18;;;;;;;5.63;2.13;;;11.00;99.90;;;;;;5065841;28;20020;-76
2023/06/03 03:55:46;;;;;;;7.18;2.10;;;11.00;99.90;;;;;;5069906;28;20031;-76
2023/06/03 03:58:23;;;;;;;5.63;2.65;;;11.00;99.90;;;;;;5071352;28;20078;-76
2023/06/03 04:00:50;;;;;;;6.85;2.25;;;11.00;99.90;;;;;;5073054;28;20435;-76
2023/06/03 04:03:17;;;;;;;5.97;1.85;;;11.00;99.90;;;;;;5068435;28;20021;-76
2023/06/03 04:05:44;;;;;;;7.05;1.77;;;11.10;99.90;;;;;;5070460;28;20032;-75
2023/06/03 04:08:25;;;;;;;3.58;1.40;;;11.00;99.90;;;;;;5054786;28;20102;-76
2023/06/03 04:10:51;;;;;;;4.32;1.58;;;11.10;99.90;;;;;;5072876;28;20024;-75
2023/06/03 04:13:18;;;;;;;3.10;1.48;;;11.10;99.90;;;;;;5072454;28;20388;-74
2023/06/03 04:15:43;;;;;;;5.40;1.88;;;11.10;99.90;;;;;;5071896;28;20036;-76
2023/06/03 04:18:11;;;;;;;4.07;1.70;;;11.10;99.90;;;;;;5070390;28;20016;-76
2023/06/03 04:20:43;;;;;;;7.07;1.80;;;11.10;99.90;;;;;;5070105;28;20039;-75
2023/06/03 04:23:14;;;;;;;4.18;2.00;;;11.20;99.90;;;;;;5066917;28;20024;-75
2023/06/03 04:25:41;;;;;;;5.57;1.60;;;11.20;99.90;;;;;;5072128;28;20021;-75
2023/06/03 04:28:07;;;;;;;4.38;1.30;;;11.30;99.90;;;;;;5064705;28;20074;-75
2023/06/03 04:30:35;;;;;;;3.88;1.38;;;11.30;99.90;;;;;;5070947;28;20033;-75
2023/06/03 04:33:00;;;;;;;5.05;1.50;;;11.30;99.90;;;;;;5071107;28;20491;-76
2023/06/03 04:35:26;;;;;;;3.00;1.63;;;11.40;99.90;;;;;;5071052;28;20021;-75
2023/06/03 04:37:51;;;;;;;4.15;1.20;;;11.40;99.90;;;;;;5072476;28;20048;-75
2023/06/03 04:40:17;;;;;;;5.57;1.30;;;11.50;99.90;;;;;;5070723;28;20067;-76
2023/06/03 04:42:43;;;;;;;5.72;1.35;;;11.50;99.90;;;;;;5054581;28;20445;-76
2023/06/03 04:45:09;;;;;;;7.50;1.70;;;11.50;99.90;;;;;;5070426;28;20103;-75
2023/06/03 04:47:35;;;;;;;5.10;1.35;;;11.60;99.90;;;;;;5053350;28;20570;-75
2023/06/03 04:50:04;;;;;;;3.65;1.10;;;11.60;99.90;;;;;;5066025;28;20112;-74
2023/06/03 04:52:31;;;;;;;4.43;1.17;;;11.70;99.90;;;;;;5071995;28;20028;-75
2023/06/03 04:54:57;;;;;;;4.63;1.17;;;11.90;99.90;;;;;;5067788;28;20438;-75
2023/06/03 04:57:22;;;;;;;4.25;1.42;;;12.20;99.90;;;;;;5064969;28;20028;-75
2023/06/03 04:59:48;;;;;;;4.65;1.00;;;12.50;99.90;;;;;;5042634;28;20056;-75
2023/06/03 05:02:16;;;;;;;2.30;0.90;;;12.80;99.90;;;;;;5063794;28;20380;-74
2023/06/03 05:04:43;;;;;;;5.95;0.80;;;13.20;99.90;;;;;;5068580;28;20575;-75
2023/06/03 05:07:11;;;;;;;2.35;0.80;;;13.50;99.90;;;;;;5068213;28;20116;-75
2023/06/03 05:09:36;;;;;;;2.97;0.88;;;13.80;99.90;;;;;;5070603;28;20070;-74
2023/06/03 05:12:02;;;;;;;3.17;1.05;;;14.10;99.90;;;;;;5067803;28;20476;-75
2023/06/03 05:14:27;;;;;;;2.85;0.80;;;14.30;99.90;;;;;;5068685;28;20396;-74
2023/06/03 05:16:53;;;;;;;3.42;1.02;;;14.50;99.90;;;;;;5068395;28;20089;-75
2023/06/03 05:19:18;;;;;;;2.05;0.60;;;14.70;99.90;;;;;;5067926;28;20583;-75
2023/06/03 05:21:44;;;;;;;1.80;0.80;;;14.90;99.90;;;;;;5070097;28;20051;-75
2023/06/03 05:24:09;;;;;;;3.78;1.02;;;15.10;99.90;;;;;;5069561;28;20032;-75
2023/06/03 05:26:35;;;;;;;3.40;0.77;;;15.20;99.90;;;;;;5069087;28;20025;-74
2023/06/03 05:29:01;;;;;;;2.15;0.68;;;15.30;99.90;;;;;;5068344;28;20089;-75
2023/06/03 05:31:26;;;;;;;3.35;0.68;;;15.40;99.90;;;;;;5067016;28;20032;-74
2023/06/03 05:33:52;;;;;;;5.00;0.80;;;15.60;99.90;;;;;;5070831;28;20029;-74
2023/06/03 05:36:17;;;;;;;3.70;1.00;;;15.70;99.90;;;;;;5068083;28;20032;-75
2023/06/03 05:38:43;;;;;;;4.80;1.27;;;15.80;99.90;;;;;;5069268;28;20037;-74
2023/06/03 05:41:09;;;;;;;4.00;1.88;;;15.90;99.90;;;;;;5053310;28;20157;-74
2023/06/03 05:43:34;;;;;;;2.30;0.90;;;16.00;99.90;;;;;;5052610;28;20028;-74
2023/06/03 05:46:00;;;;;;;2.55;0.80;;;16.00;99.50;;;;;;5068275;28;20035;-74
2023/06/03 05:48:25;;;;;;;6.28;1.35;;;15.90;98.80;;;;;;5067115;28;20036;-74
2023/06/03 05:50:53;;;;;;;9.85;0.90;;;15.90;98.40;;;;;;5068144;28;20039;-75
2023/06/03 05:53:21;;;;;;;3.67;1.02;;;15.90;97.90;;;;;;5050731;28;20028;-75
2023/06/03 05:55:51;;;;;;;2.28;0.63;;;15.80;97.40;;;;;;5063360;28;20024;-74
2023/06/03 05:58:17;;;;;;;1.38;0.57;;;15.60;97.10;;;;;;5070564;28;20055;-74
2023/06/03 06:00:43;;;;;;;6.78;1.00;;;15.70;97.00;;;;;;5067132;28;20044;-75
2023/06/03 06:03:08;;;;;;;2.53;0.80;;;15.60;96.40;;;;;;5062518;28;20028;-74
2023/06/03 06:05:34;;;;;;;3.08;0.90;;;15.60;96.90;;;;;;5069887;28;20028;-74
2023/06/03 06:08:00;;;;;;;3.70;0.90;;;15.60;96.30;;;;;;5069609;28;20020;-74
2023/06/03 06:10:26;;;;;;;4.78;0.80;;;15.50;95.70;;;;;;5046372;28;20115;-75
2023/06/03 06:12:51;;;;;;;2.97;0.90;;;15.50;95.90;;;;;;5060937;28;20033;-75
2023/06/03 06:15:17;;;;;;;2.97;0.70;;;15.70;96.30;;;;;;5058662;28;20104;-75
2023/06/03 06:17:43;;;;;;;3.30;0.70;;;15.80;95.90;;;;;;5070954;28;20060;-75
2023/06/03 06:20:12;;;;;;;5.97;0.77;;;15.80;95.70;;;;;;5061169;28;20037;-74
2023/06/03 06:22:38;;;;;;;2.33;0.80;;;15.80;95.10;;;;;;5058358;28;20029;-75
2023/06/03 06:25:08;;;;;;;3.25;0.95;;;15.80;94.60;;;;;;5057928;28;20399;-75
2023/06/03 06:27:34;;;;;;;2.08;0.90;;;15.80;94.60;;;;;;5044541;28;20092;-74
2023/06/03 06:30:02;;;;;;;5.13;0.77;;;15.90;94.60;;;;;;5059019;28;20400;-76
2023/06/03 06:32:29;;;;;;;3.80;0.75;;;16.00;94.10;;;;;;5040150;28;20095;-74
2023/06/03 06:34:55;;;;;;;2.35;0.68;;;16.00;94.00;;;;;;5070888;28;20044;-75
2023/06/03 06:37:21;;;;;;;4.68;1.10;;;16.00;94.00;;;;;;5050355;28;20083;-74
2023/06/03 06:39:51;;;;;;;4.70;0.93;;;16.00;94.00;;;;;;5051893;28;20029;-76
2023/06/03 06:42:35;;;;;;;2.00;0.70;;;16.10;93.10;;;;;;5044803;28;20388;-75
2023/06/03 06:45:18;;;;;;;2.17;0.60;;;16.10;93.60;;;;;;5046454;28;20523;-76
2023/06/03 06:47:44;;;;;;;1.95;0.70;;;16.20;93.30;;;;;;5038939;28;20424;-76
2023/06/03 06:50:39;;;;;;;2.63;0.75;;;16.20;93.10;;;;;;5044710;28;20029;-74
2023/06/03 06:53:06;;;;;;;2.10;0.60;;;16.20;92.50;;;;;;5044270;28;20447;-75
2023/06/03 06:55:36;;;;;;;3.05;0.70;;;16.20;92.50;;;;;;5045452;28;20025;-75
2023/06/03 06:58:02;;;;;;;2.95;0.70;;;16.30;92.70;;;;;;5045440;28;20053;-75
2023/06/03 07:00:30;;;;;;;7.15;1.88;;;16.30;92.30;;;;;;5043647;28;20114;-75
2023/06/03 07:02:56;;;;;;;8.40;0.80;;;16.30;92.00;;;;;;5043888;28;20017;-76
2023/06/03 07:05:21;;;;;;;5.03;0.68;;;16.40;91.80;;;;;;5045065;28;20400;-75
2023/06/03 07:07:48;;;;;;;2.15;0.63;;;16.40;91.50;;;;;;5043811;28;20034;-75
2023/06/03 07:10:20;;;;;;;2.45;0.90;;;16.60;91.40;;;;;;5043681;28;20199;-75
2023/06/03 07:12:46;;;;;;;3.05;0.52;;;16.60;91.20;;;;;;5052681;28;20025;-75
2023/06/03 07:15:12;;;;;;;2.33;0.60;;;16.60;90.60;;;;;;5041186;28;20435;-73
2023/06/03 07:17:39;;;;;;;2.88;0.50;;;16.60;90.20;;;;;;5044655;28;20028;-75
2023/06/03 07:20:06;;;;;;;3.25;0.55;;;16.70;90.10;;;;;;5045668;28;20029;-75
2023/06/03 07:22:32;;;;;;;3.30;0.60;;;16.70;90.00;;;;;;5043660;28;20025;-74
2023/06/03 07:24:58;;;;;;;3.03;0.60;;;16.80;90.10;;;;;;5043995;28;20033;-73
2023/06/03 07:27:28;;;;;;;1.67;0.40;;;16.90;89.70;;;;;;5039266;28;20041;-74
2023/06/03 07:29:57;;;;;;;1.80;0.40;;;17.00;89.10;;;;;;5051844;28;20033;-74
2023/06/03 07:32:26;;;;;;;2.03;0.45;;;17.20;88.80;;;;;;5035134;28;20029;-74
2023/06/03 07:34:51;;;;;;;2.95;0.50;;;17.30;88.20;;;;;;5052759;28;20024;-75
2023/06/03 07:37:17;;;;;;;3.75;0.47;;;17.40;88.80;;;;;;5045949;28;20036;-75
2023/06/03 07:39:43;;;;;;;2.85;0.60;;;17.50;88.30;;;;;;5045894;28;20086;-74
2023/06/03 07:42:25;;;;;;;2.33;0.50;;;17.60;86.30;;;;;;5065747;28;20036;-75
2023/06/03 07:44:50;;;;;;;2.67;0.43;;;17.60;85.90;;;;;;5062133;28;20079;-74
2023/06/03 07:47:17;;;;;;;6.97;0.50;;;17.70;85.30;;;;;;5072136;28;20024;-75
2023/06/03 07:49:48;;;;;;;5.40;0.60;;;17.90;84.60;;;;;;5060175;28;20063;-75
2023/06/03 07:52:19;;;;;;;2.50;0.40;;;17.90;81.70;;;;;;5070181;28;20488;-74
2023/06/03 07:54:44;;;;;;;2.28;0.45;;;17.90;81.40;;;;;;5070596;28;20057;-74
2023/06/03 07:57:14;;;;;;;3.08;0.50;;;18.00;81.00;;;;;;5059228;28;20074;-75
2023/06/03 07:59:48;;;;;;;2.78;0.50;;;18.10;81.10;;;;;;5071278;28;20032;-74
2023/06/03 08:02:15;;;;;;;1.95;0.52;;;18.10;78.40;;;;;;5071039;28;20056;-74
2023/06/03 08:04:41;;;;;;;2.35;0.40;;;18.10;79.40;;;;;;5076553;28;20069;-74
2023/06/03 08:07:07;;;;;;;1.83;0.50;;;18.20;76.60;;;;;;5074014;28;20020;-73
2023/06/03 08:09:35;;;;;;;2.67;0.43;;;18.10;77.30;;;;;;5072959;28;20035;-75
2023/06/03 08:12:06;;;;;;;2.33;0.68;;;18.20;76.70;;;;;;5072154;28;20029;-73
2023/06/03 08:14:36;;;;;;;3.72;0.80;;;18.30;75.40;;;;;;5053217;28;20024;-73
2023/06/03 08:17:16;;;;;;;2.60;0.43;;;18.30;75.30;;;;;;5058025;28;20036;-73
2023/06/03 08:19:45;;;;;;;3.20;0.70;;;18.40;73.40;;;;;;5072693;28;20170;-73
2023/06/03 08:22:28;;;;;;;1.77;0.38;;;18.40;72.60;;;;;;5064957;28;20025;-75
2023/06/03 08:24:54;;;;;;;2.30;0.40;;;18.50;72.60;;;;;;5079267;28;20032;-73
2023/06/03 08:27:19;;;;;;;2.25;0.40;;;18.60;70.40;;;;;;5071946;28;20028;-73
2023/06/03 08:29:46;;;;;;;3.17;0.30;;;18.70;70.10;;;;;;5071938;28;20386;-73
2023/06/03 08:32:11;;;;;;;2.90;0.40;;;18.90;70.30;;;;;;5072078;28;20031;-74
2023/06/03 08:34:37;;;;;;;1.23;0.30;;;19.00;69.60;;;;;;5071636;28;20028;-74
2023/06/03 08:37:03;;;;;;;3.15;0.50;;;19.20;67.80;;;;;;5072532;28;20040;-73
2023/06/03 08:39:28;;;;;;;3.90;0.50;;;19.20;66.50;;;;;;5072237;28;20035;-73
2023/06/03 08:41:56;;;;;;;4.85;0.50;;;19.20;64.90;;;;;;5070146;28;20090;-74
2023/06/03 08:44:36;;;;;;;0.47;0.20;;;19.20;64.90;;;;;;5071859;28;20075;-73
2023/06/03 08:47:12;;;;;;;1.63;0.63;;;19.30;64.10;;;;;;5072259;28;20086;-74
2023/06/03 08:49:56;;;;;;;1.63;0.40;;;19.30;63.80;;;;;;5072481;28;20032;-73
2023/06/03 08:52:25;;;;;;;1.38;0.40;;;19.30;62.00;;;;;;5071865;28;20021;-73
2023/06/03 08:54:55;;;;;;;4.22;0.30;;;19.20;61.50;;;;;;5071098;28;20032;-74
2023/06/03 08:57:21;;;;;;;2.17;0.30;;;19.20;62.40;;;;;;5068137;28;20111;-75
2023/06/03 08:59:52;;;;;;;2.95;0.77;;;19.30;62.80;;;;;;5069297;28;20111;-74
2023/06/03 09:02:18;;;;;;;1.90;0.30;;;19.50;62.70;;;;;;5071373;28;20040;-74
2023/06/03 09:04:47;;;;;;;1.73;0.30;;;19.60;62.30;;;;;;5049604;28;20033;-74
2023/06/03 09:07:13;;;;;;;5.10;0.88;;;19.70;62.00;;;;;;5061560;28;20033;-73
2023/06/03 09:09:41;;;;;;;6.18;0.22;;;19.70;62.30;;;;;;5072037;28;20046;-74
2023/06/03 09:12:07;;;;;;;2.33;0.28;;;19.90;63.50;;;;;;5071157;28;20032;-73
2023/06/03 09:14:35;;;;;;;4.38;0.30;;;19.90;60.50;;;;;;5065975;28;20031;-73
2023/06/03 09:17:01;;;;;;;2.65;0.30;;;19.90;61.50;;;;;;5063523;28;20372;-74
2023/06/03 09:19:26;;;;;;;2.67;0.30;;;19.90;59.40;;;;;;5069830;28;20025;-73
2023/06/03 09:21:56;;;;;;;2.03;0.30;;;19.90;59.00;;;;;;5060326;28;20033;-73
2023/06/03 09:24:22;;;;;;;4.88;0.40;;;19.90;59.20;;;;;;5062711;28;20024;-71
2023/06/03 09:26:48;;;;;;;1.38;0.30;;;20.00;59.40;;;;;;5070516;28;20025;-72
2023/06/03 09:29:13;;;;;;;2.97;0.30;;;20.10;59.20;;;;;;5069256;28;20035;-72
2023/06/03 09:31:40;;;;;;;2.97;0.30;;;20.10;57.50;;;;;;5051706;28;20170;-72
2023/06/03 09:34:06;;;;;;;2.38;0.30;;;20.10;57.30;;;;;;5053679;28;20494;-72
2023/06/03 09:36:46;;;;;;;1.40;0.20;;;20.10;55.60;;;;;;5070214;28;20029;-72
2023/06/03 09:39:17;;;;;;;1.55;0.35;;;20.10;55.70;;;;;;5069124;28;20476;-73
2023/06/03 09:41:44;;;;;;;1.52;0.30;;;20.10;55.30;;;;;;5070910;28;20043;-72
2023/06/03 09:44:11;;;;;;;1.42;0.30;;;20.10;54.60;;;;;;5052379;28;20059;-73
2023/06/03 09:46:37;;;;;;;1.30;0.20;;;20.10;54.20;;;;;;5070813;28;20032;-74
2023/06/03 09:49:17;;;;;;;1.75;0.20;;;20.20;54.90;;;;;;5070691;28;20361;-72
2023/06/03 09:51:47;;;;;;;1.98;0.30;;;20.40;55.60;;;;;;5060460;28;20032;-72
2023/06/03 09:54:15;;;;;;;0.82;0.30;;;20.60;55.10;;;;;;5070615;28;20104;-73
2023/06/03 09:56:42;;;;;;;3.33;0.20;;;20.80;55.40;;;;;;5067688;28;20033;-73
2023/06/03 09:59:15;;;;;;;3.85;0.20;;;20.90;54.40;;;;;;5056286;28;20073;-72
2023/06/03 10:01:42;;;;;;;0.90;0.20;;;20.90;53.80;;;;;;5063433;28;20950;-72
2023/06/03 10:04:08;;;;;;;0.50;0.13;;;21.00;52.10;;;;;;5068016;28;20523;-73
2023/06/03 10:06:38;;;;;;;1.98;0.15;;;20.90;51.30;;;;;;5058861;28;20112;-74
2023/06/03 10:09:21;;;;;;;3.35;0.43;;;20.80;50.80;;;;;;5053040;28;20562;-73
2023/06/03 10:11:51;;;;;;;2.78;0.30;;;20.70;50.10;;;;;;5069668;28;20035;-73
2023/06/03 10:14:22;;;;;;;1.15;0.20;;;20.60;50.40;;;;;;5068171;28;20495;-73
2023/06/03 10:17:07;;;;;;;1.10;0.20;;;20.60;50.90;;;;;;5064855;28;20028;-73
2023/06/03 10:19:38;;;;;;;0.75;0.15;;;20.60;49.70;;;;;;5064349;28;20481;-73
2023/06/03 10:22:05;;;;;;;0.80;0.30;;;20.60;49.30;;;;;;5069159;28;20111;-72
2023/06/03 10:24:34;;;;;;;1.73;0.20;;;20.60;49.40;;;;;;5047723;28;20229;-73
2023/06/03 10:27:01;;;;;;;1.38;0.20;;;20.70;49.70;;;;;;5060747;28;20033;-73
2023/06/03 10:29:29;;;;;;;1.30;0.52;;;20.70;48.90;;;;;;5068879;28;20037;-74
2023/06/03 10:31:57;;;;;;;2.45;0.20;;;20.80;48.90;;;;;;5063272;28;20435;-74
2023/06/03 10:34:23;;;;;;;1.42;0.20;;;20.80;48.00;;;;;;5065321;28;20025;-74
2023/06/03 10:36:56;;;;;;;1.08;0.20;;;20.80;47.60;;;;;;5070610;28;20029;-74
2023/06/03 10:39:24;;;;;;;1.02;0.20;;;20.80;47.70;;;;;;5060869;28;20488;-74
2023/06/03 10:41:51;;;;;;;4.85;0.20;;;20.80;48.10;;;;;;5065668;28;20044;-73
2023/06/03 10:44:19;;;;;;;3.45;0.20;;;20.90;48.20;;;;;;5059391;28;20375;-74
2023/06/03 10:47:08;;;;;;;0.45;0.17;;;21.10;48.30;;;;;;5066151;28;20477;-73
2023/06/03 10:49:41;;;;;;;0.40;0.10;;;21.10;47.30;;;;;;5069798;28;20066;-73
2023/06/03 10:52:12;;;;;;;0.70;0.20;;;21.10;47.90;;;;;;5069330;28;20372;-74
2023/06/03 10:54:50;;;;;;;0.50;0.10;;;21.10;46.80;;;;;;5068551;28;20498;-74
2023/06/03 10:57:20;;;;;;;0.93;0.20;;;21.10;46.30;;;;;;5067637;28;20036;-74
2023/06/03 10:59:46;;;;;;;1.17;0.20;;;21.20;46.60;;;;;;5057291;28;20028;-73
2023/06/03 11:02:13;;;;;;;0.77;0.20;;;21.20;46.70;;;;;;5065622;28;20028;-74
2023/06/03 11:04:39;;;;;;;4.53;0.28;;;21.30;46.50;;;;;;5068185;28;20345;-73
2023/06/03 11:07:07;;;;;;;1.15;0.20;;;21.30;46.60;;;;;;5067384;28;20032;-73
2023/06/03 11:09:38;;;;;;;0.75;0.10;;;21.30;44.30;;;;;;5068908;28;20027;-73
2023/06/03 11:12:05;;;;;;;1.83;0.20;;;21.20;44.60;;;;;;5070279;28;20112;-74
2023/06/03 11:14:38;;;;;;;1.38;0.20;;;21.20;44.50;;;;;;5063272;28;20074;-73
2023/06/03 11:17:03;;;;;;;1.48;0.10;;;21.20;44.50;;;;;;5066721;28;20028;-74
2023/06/03 11:19:50;;;;;;;1.25;0.20;;;21.20;44.50;;;;;;5049915;28;20150;-74
2023/06/03 11:22:27;;;;;;;0.40;0.17;;;21.20;45.20;;;;;;5065410;28;20116;-74
2023/06/03 11:24:54;;;;;;;0.32;0.10;;;21.30;44.90;;;;;;5056715;28;20079;-74
2023/06/03 11:27:23;;;;;;;0.75;0.10;;;21.30;45.20;;;;;;5071016;28;20483;-74
2023/06/03 11:29:49;;;;;;;2.53;0.20;;;21.40;45.20;;;;;;5074163;28;20024;-74
2023/06/03 11:32:28;;;;;;;0.50;0.20;;;21.50;45.20;;;;;;5073507;28;20066;-74
2023/06/03 11:35:03;;;;;;;1.73;0.20;;;21.40;44.50;;;;;;5070795;28;20407;-74
2023/06/03 11:37:40;;;;;;;0.90;0.20;;;21.40;44.50;;;;;;5053066;28;20048;-73
2023/06/03 11:40:15;;;;;;;0.63;0.20;;;21.30;44.60;;;;;;5069737;28;20531;-74
2023/06/03 11:42:56;;;;;;;0.80;0.20;;;21.30;45.90;;;;;;5073545;28;20553;-74
2023/06/03 11:45:21;;;;;;;2.72;0.55;;;21.40;44.30;;;;;;5063354;28;20044;-74
2023/06/03 11:47:47;;;;;;;1.50;0.30;;;21.40;44.70;;;;;;5066554;28;20530;-73
2023/06/03 11:50:13;;;;;;;0.88;0.13;;;21.50;44.40;;;;;;5071117;28;20033;-75
2023/06/03 11:52:38;;;;;;;1.73;0.20;;;21.50;44.50;;;;;;5055762;28;20127;-75
2023/06/03 11:55:04;;;;;;;2.03;0.20;;;21.50;45.00;;;;;;5071539;28;20025;-76
2023/06/03 11:57:30;;;;;;;0.68;0.20;;;21.60;45.70;;;;;;5070906;28;20051;-75
2023/06/03 11:59:57;;;;;;;0.90;0.30;;;21.80;45.00;;;;;;5073483;28;20064;-75
2023/06/03 12:02:22;;;;;;;2.38;0.20;;;21.90;44.80;;;;;;5069075;28;20029;-74
2023/06/03 12:04:48;;;;;;;1.25;0.20;;;21.90;44.70;;;;;;5067763;28;20021;-75
2023/06/03 12:07:17;;;;;;;1.33;0.13;;;21.90;45.40;;;;;;5058702;28;20380;-75
2023/06/03 12:09:43;;;;;;;0.65;0.20;;;22.10;46.50;;;;;;5069085;28;20029;-75
2023/06/03 12:12:10;;;;;;;0.82;0.20;;;22.10;45.10;;;;;;5065408;28;20073;-75
2023/06/03 12:14:38;;;;;;;0.82;0.20;;;22.10;45.00;;;;;;5072712;28;20016;-75
2023/06/03 12:17:22;;;;;;;1.15;0.30;;;22.00;44.10;;;;;;5069526;28;20036;-74
2023/06/03 12:19:49;;;;;;;1.38;0.20;;;21.90;44.10;;;;;;5047900;28;20040;-75
2023/06/03 12:22:22;;;;;;;2.00;0.20;;;22.00;44.70;;;;;;5067025;28;20032;-76
2023/06/03 12:24:48;;;;;;;1.23;0.20;;;22.10;44.40;;;;;;5071038;28;20073;-75
2023/06/03 12:27:27;;;;;;;2.40;0.20;;;22.10;44.30;;;;;;5071940;28;20035;-74
2023/06/03 12:29:53;;;;;;;1.45;0.20;;;22.20;44.60;;;;;;5071600;28;20036;-74
2023/06/03 12:32:18;;;;;;;1.13;0.20;;;22.20;45.00;;;;;;5068083;28;20024;-74
2023/06/03 12:34:45;;;;;;;0.95;0.30;;;22.20;45.00;;;;;;5070972;28;20485;-73
2023/06/03 12:37:12;;;;;;;1.92;0.20;;;22.30;44.70;;;;;;5068388;28;20108;-73
2023/06/03 12:39:48;;;;;;;2.75;0.68;;;22.40;45.50;;;;;;5052672;28;20060;-74
2023/06/03 12:42:32;;;;;;;1.45;0.20;;;22.60;45.30;;;;;;5068763;28;20044;-73
2023/06/03 12:44:58;;;;;;;1.95;0.25;;;22.70;45.10;;;;;;5072840;28;20036;-73
2023/06/03 12:47:24;;;;;;;2.65;0.30;;;22.80;44.90;;;;;;5059442;28;20032;-74
2023/06/03 12:50:05;;;;;;;1.67;0.22;;;22.80;43.90;;;;;;5070318;28;20048;-74
2023/06/03 12:52:34;;;;;;;2.22;0.20;;;22.70;43.90;;;;;;5069238;28;20028;-74